sensor_id;sensor_type;location;lat;lon;timestamp;pressure;altitude;pressure_sealevel;temperature;humidity
21838;BME280;11081;45.946;6.140;2023-09-19T00:01:45;95299.13;;;18.81;97.60
21838;BME280;11081;45.946;6.140;2023-09-19T00:04:13;95289.34;;;18.72;98.00
21838;BME280;11081;45.946;6.140;2023-09-19T00:06:42;95295.44;;;18.72;97.98
21838;BME280;11081;45.946;6.140;2023-09-19T00:09:10;95291.72;;;18.73;97.55
21838;BME280;11081;45.946;6.140;2023-09-19T00:11:38;95296.50;;;18.71;97.66
21838;BME280;11081;45.946;6.140;2023-09-19T00:14:08;95290.16;;;18.72;97.32
21838;BME280;11081;45.946;6.140;2023-09-19T00:16:36;95290.16;;;18.72;97.07
21838;BME280;11081;45.946;6.140;2023-09-19T00:19:05;95293.84;;;18.71;97.39
21838;BME280;11081;45.946;6.140;2023-09-19T00:21:35;95291.75;;;18.68;97.28
21838;BME280;11081;45.946;6.140;2023-09-19T00:24:04;95293.34;;;18.74;97.72
21838;BME280;11081;45.946;6.140;2023-09-19T00:26:33;95293.06;;;18.81;97.44
21838;BME280;11081;45.946;6.140;2023-09-19T00:29:01;95294.38;;;18.78;97.50
21838;BME280;11081;45.946;6.140;2023-09-19T00:31:35;95282.75;;;18.74;97.74
21838;BME280;11081;45.946;6.140;2023-09-19T00:34:05;95284.06;;;18.82;97.28
21838;BME280;11081;45.946;6.140;2023-09-19T00:36:35;95282.22;;;18.77;96.68
21838;BME280;11081;45.946;6.140;2023-09-19T00:39:05;95280.66;;;18.66;97.40
21838;BME280;11081;45.946;6.140;2023-09-19T00:41:35;95275.91;;;18.63;97.09
21838;BME280;11081;45.946;6.140;2023-09-19T00:44:03;95278.53;;;18.58;97.05
21838;BME280;11081;45.946;6.140;2023-09-19T00:46:31;95280.13;;;18.49;97.63
21838;BME280;11081;45.946;6.140;2023-09-19T00:49:00;95268.50;;;18.45;97.97
21838;BME280;11081;45.946;6.140;2023-09-19T00:51:31;95274.31;;;18.42;97.84
21838;BME280;11081;45.946;6.140;2023-09-19T00:53:59;95265.88;;;18.40;97.93
21838;BME280;11081;45.946;6.140;2023-09-19T00:56:28;95268.78;;;18.38;97.82
21838;BME280;11081;45.946;6.140;2023-09-19T00:58:56;95266.41;;;18.37;97.38
21838;BME280;11081;45.946;6.140;2023-09-19T01:01:25;95256.63;;;18.37;97.39
21838;BME280;11081;45.946;6.140;2023-09-19T01:03:53;95276.19;;;18.36;97.28
21838;BME280;11081;45.946;6.140;2023-09-19T01:06:21;95279.09;;;18.35;97.38
21838;BME280;11081;45.946;6.140;2023-09-19T01:08:51;95283.03;;;18.27;97.52
21838;BME280;11081;45.946;6.140;2023-09-19T01:11:27;95275.66;;;18.24;97.40
21838;BME280;11081;45.946;6.140;2023-09-19T01:13:58;95284.38;;;18.24;97.62
21838;BME280;11081;45.946;6.140;2023-09-19T01:16:35;95288.09;;;18.34;97.47
21838;BME280;11081;45.946;6.140;2023-09-19T01:19:28;95280.69;;;18.36;97.20
21838;BME280;11081;45.946;6.140;2023-09-19T01:22:11;95292.84;;;18.37;97.38
21838;BME280;11081;45.946;6.140;2023-09-19T01:28:10;95293.34;;;18.39;98.31
21838;BME280;11081;45.946;6.140;2023-09-19T01:30:46;95293.88;;;18.46;97.95
21838;BME280;11081;45.946;6.140;2023-09-19T01:33:16;95293.88;;;18.46;98.37
21838;BME280;11081;45.946;6.140;2023-09-19T01:35:45;95283.31;;;18.41;98.82
21838;BME280;11081;45.946;6.140;2023-09-19T01:38:13;95284.84;;;18.52;98.63
21838;BME280;11081;45.946;6.140;2023-09-19T01:40:43;95285.41;;;18.49;98.97
21838;BME280;11081;45.946;6.140;2023-09-19T01:43:17;95286.44;;;18.53;99.01
21838;BME280;11081;45.946;6.140;2023-09-19T01:45:59;95291.72;;;18.53;99.29
21838;BME280;11081;45.946;6.140;2023-09-19T01:48:36;95280.38;;;18.52;99.71
21838;BME280;11081;45.946;6.140;2023-09-19T01:51:09;95277.47;;;18.54;99.82
21838;BME280;11081;45.946;6.140;2023-09-19T01:53:44;95280.66;;;18.56;99.93
21838;BME280;11081;45.946;6.140;2023-09-19T01:56:25;95281.16;;;18.58;99.82
21838;BME280;11081;45.946;6.140;2023-09-19T01:58:59;95281.69;;;18.60;99.55
21838;BME280;11081;45.946;6.140;2023-09-19T02:01:31;95282.22;;;18.62;99.68
21838;BME280;11081;45.946;6.140;2023-09-19T02:04:02;95281.69;;;18.60;100.00
21838;BME280;11081;45.946;6.140;2023-09-19T02:06:31;95280.66;;;18.66;99.78
21838;BME280;11081;45.946;6.140;2023-09-19T02:09:00;95276.94;;;18.67;99.88
21838;BME280;11081;45.946;6.140;2023-09-19T02:11:29;95274.03;;;18.69;99.50
21838;BME280;11081;45.946;6.140;2023-09-19T02:13:57;95274.28;;;18.72;99.64
21838;BME280;11081;45.946;6.140;2023-09-19T02:16:26;95277.97;;;18.71;99.66
21838;BME280;11081;45.946;6.140;2023-09-19T02:18:57;95276.94;;;18.77;99.85
21838;BME280;11081;45.946;6.140;2023-09-19T02:21:26;95278.53;;;18.68;100.00
21838;BME280;11081;45.946;6.140;2023-09-19T02:23:56;95282.22;;;18.67;100.00
21838;BME280;11081;45.946;6.140;2023-09-19T02:26:24;95269.28;;;18.66;100.00
21838;BME280;11081;45.946;6.140;2023-09-19T02:28:54;95278.53;;;18.68;100.00
21838;BME280;11081;45.946;6.140;2023-09-19T02:31:22;95276.94;;;18.67;100.00
21838;BME280;11081;45.946;6.140;2023-09-19T02:33:50;95278.53;;;18.68;99.98
21838;BME280;11081;45.946;6.140;2023-09-19T02:36:20;95277.47;;;18.69;99.46
21838;BME280;11081;45.946;6.140;2023-09-19T02:38:48;95274.81;;;18.69;99.14
21838;BME280;11081;45.946;6.140;2023-09-19T02:41:16;95288.31;;;18.68;99.33
21838;BME280;11081;45.946;6.140;2023-09-19T02:43:44;95271.66;;;18.67;99.45
21838;BME280;11081;45.946;6.140;2023-09-19T02:46:12;95271.66;;;18.67;99.51
21838;BME280;11081;45.946;6.140;2023-09-19T02:48:41;95275.91;;;18.63;99.41
21838;BME280;11081;45.946;6.140;2023-09-19T02:51:09;95271.13;;;18.60;99.52
21838;BME280;11081;45.946;6.140;2023-09-19T02:53:39;95272.69;;;18.61;99.51
21838;BME280;11081;45.946;6.140;2023-09-19T02:56:08;95274.81;;;18.59;99.25
21838;BME280;11081;45.946;6.140;2023-09-19T02:58:38;95275.38;;;18.56;99.04
21838;BME280;11081;45.946;6.140;2023-09-19T03:01:08;95287.50;;;18.62;98.43
21838;BME280;11081;45.946;6.140;2023-09-19T03:03:38;95275.34;;;18.66;98.16
21838;BME280;11081;45.946;6.140;2023-09-19T03:06:08;95275.34;;;18.71;97.40
21838;BME280;11081;45.946;6.140;2023-09-19T03:08:36;95278.28;;;18.65;97.46
21838;BME280;11081;45.946;6.140;2023-09-19T03:11:09;95279.56;;;18.62;97.28
21838;BME280;11081;45.946;6.140;2023-09-19T03:13:41;95273.78;;;18.65;97.46
21838;BME280;11081;45.946;6.140;2023-09-19T03:16:10;95271.13;;;18.70;97.82
21838;BME280;11081;45.946;6.140;2023-09-19T03:18:40;95269.00;;;18.72;97.38
21838;BME280;11081;45.946;6.140;2023-09-19T03:21:08;95276.16;;;18.67;97.74
21838;BME280;11081;45.946;6.140;2023-09-19T03:23:39;95268.75;;;18.69;98.04
21838;BME280;11081;45.946;6.140;2023-09-19T03:26:09;95277.19;;;18.81;97.15
21838;BME280;11081;45.946;6.140;2023-09-19T03:28:39;95278.75;;;18.82;97.09
21838;BME280;11081;45.946;6.140;2023-09-19T03:31:08;95283.19;;;19.02;95.91
21838;BME280;11081;45.946;6.140;2023-09-19T03:33:36;95280.28;;;19.03;95.67
21838;BME280;11081;45.946;6.140;2023-09-19T03:36:05;95282.59;;;19.15;95.13
21838;BME280;11081;45.946;6.140;2023-09-19T03:38:34;95277.06;;;19.11;95.01
21838;BME280;11081;45.946;6.140;2023-09-19T03:41:02;95280.56;;;18.92;96.15
21838;BME280;11081;45.946;6.140;2023-09-19T03:43:34;95288.50;;;18.92;96.79
21838;BME280;11081;45.946;6.140;2023-09-19T03:46:03;95289.56;;;18.91;96.98
21838;BME280;11081;45.946;6.140;2023-09-19T03:48:33;95279.00;;;18.96;96.22
21838;BME280;11081;45.946;6.140;2023-09-19T03:51:02;95271.59;;;18.98;96.51
21838;BME280;11081;45.946;6.140;2023-09-19T03:53:31;95280.94;;;19.34;94.30
21838;BME280;11081;45.946;6.140;2023-09-19T03:55:59;95268.41;;;18.96;95.59
21838;BME280;11081;45.946;6.140;2023-09-19T03:58:30;95272.97;;;18.80;97.17
21838;BME280;11081;45.946;6.140;2023-09-19T04:01:00;95270.56;;;18.73;97.56
21838;BME280;11081;45.946;6.140;2023-09-19T04:03:28;95274.53;;;18.71;97.85
21838;BME280;11081;45.946;6.140;2023-09-19T04:06:02;95273.19;;;18.88;97.25
21838;BME280;11081;45.946;6.140;2023-09-19T04:08:31;95266.84;;;18.84;97.24
21838;BME280;11081;45.946;6.140;2023-09-19T04:10:59;95273.19;;;18.88;97.04
21838;BME280;11081;45.946;6.140;2023-09-19T04:13:27;95276.38;;;18.85;97.33
21838;BME280;11081;45.946;6.140;2023-09-19T04:15:55;95268.72;;;18.84;97.19
21838;BME280;11081;45.946;6.140;2023-09-19T04:18:25;95265.28;;;18.83;97.50
21838;BME280;11081;45.946;6.140;2023-09-19T04:20:53;95265.81;;;18.80;97.77
21838;BME280;11081;45.946;6.140;2023-09-19T04:23:23;95260.78;;;18.79;97.73
21838;BME280;11081;45.946;6.140;2023-09-19T04:25:51;95263.69;;;18.82;97.71
21838;BME280;11081;45.946;6.140;2023-09-19T04:28:19;95270.56;;;18.83;97.34
21838;BME280;11081;45.946;6.140;2023-09-19T04:30:47;95264.78;;;18.66;97.96
21838;BME280;11081;45.946;6.140;2023-09-19T04:33:15;95272.19;;;18.64;98.22
21838;BME280;11081;45.946;6.140;2023-09-19T04:35:45;95274.28;;;18.62;98.08
21838;BME280;11081;45.946;6.140;2023-09-19T04:38:17;95271.63;;;18.62;98.33
21838;BME280;11081;45.946;6.140;2023-09-19T04:40:46;95281.97;;;18.64;97.75
21838;BME280;11081;45.946;6.140;2023-09-19T04:43:14;95286.47;;;18.63;97.96
21838;BME280;11081;45.946;6.140;2023-09-19T04:45:43;95286.47;;;18.63;98.26
21838;BME280;11081;45.946;6.140;2023-09-19T04:48:13;95282.78;;;18.64;98.24
21838;BME280;11081;45.946;6.140;2023-09-19T04:50:44;95293.84;;;18.61;98.12
21838;BME280;11081;45.946;6.140;2023-09-19T04:53:12;95294.66;;;18.62;97.65
21838;BME280;11081;45.946;6.140;2023-09-19T04:55:40;95292.28;;;18.50;97.53
21838;BME280;11081;45.946;6.140;2023-09-19T04:58:08;95299.97;;;18.41;98.00
21838;BME280;11081;45.946;6.140;2023-09-19T05:00:36;95302.34;;;18.43;98.05
21838;BME280;11081;45.946;6.140;2023-09-19T05:03:04;95306.56;;;18.39;98.27
21838;BME280;11081;45.946;6.140;2023-09-19T05:05:33;95303.38;;;18.42;98.38
21838;BME280;11081;45.946;6.140;2023-09-19T05:08:03;95304.97;;;18.48;97.88
21838;BME280;11081;45.946;6.140;2023-09-19T05:10:32;95310.50;;;18.51;98.33
21838;BME280;11081;45.946;6.140;2023-09-19T05:13:00;95306.00;;;18.52;98.42
21838;BME280;11081;45.946;6.140;2023-09-19T05:15:29;95301.81;;;18.56;98.32
21838;BME280;11081;45.946;6.140;2023-09-19T05:17:57;95307.09;;;18.56;98.53
21838;BME280;11081;45.946;6.140;2023-09-19T05:20:25;95313.41;;;18.60;97.99
21838;BME280;11081;45.946;6.140;2023-09-19T05:22:59;95311.31;;;18.67;97.85
21838;BME280;11081;45.946;6.140;2023-09-19T05:25:31;95312.91;;;18.68;98.41
21838;BME280;11081;45.946;6.140;2023-09-19T05:27:59;95316.31;;;18.48;99.64
21838;BME280;11081;45.946;6.140;2023-09-19T05:30:30;95322.41;;;18.59;99.25
21838;BME280;11081;45.946;6.140;2023-09-19T05:32:59;95329.81;;;18.67;98.84
21838;BME280;11081;45.946;6.140;2023-09-19T05:35:27;95336.69;;;18.78;97.23
21838;BME280;11081;45.946;6.140;2023-09-19T05:37:55;95337.25;;;18.75;97.41
21838;BME280;11081;45.946;6.140;2023-09-19T05:40:25;95332.47;;;18.62;97.89
21838;BME280;11081;45.946;6.140;2023-09-19T05:42:55;95341.44;;;18.61;98.39
21838;BME280;11081;45.946;6.140;2023-09-19T05:45:23;95342.53;;;18.75;97.66
21838;BME280;11081;45.946;6.140;2023-09-19T05:47:52;95343.03;;;18.72;97.50
21838;BME280;11081;45.946;6.140;2023-09-19T05:50:22;95342.78;;;18.79;97.75
21838;BME280;11081;45.946;6.140;2023-09-19T05:52:51;95350.44;;;18.80;97.39
21838;BME280;11081;45.946;6.140;2023-09-19T05:55:20;95349.41;;;18.66;97.87
21838;BME280;11081;45.946;6.140;2023-09-19T05:57:52;95347.28;;;18.58;99.18
21838;BME280;11081;45.946;6.140;2023-09-19T06:00:22;95346.72;;;18.61;99.28
21838;BME280;11081;45.946;6.140;2023-09-19T06:02:51;95356.25;;;18.62;98.88
21838;BME280;11081;45.946;6.140;2023-09-19T06:05:20;95351.75;;;18.57;98.70
21838;BME280;11081;45.946;6.140;2023-09-19T06:07:48;95355.47;;;18.56;99.43
21838;BME280;11081;45.946;6.140;2023-09-19T06:10:17;95355.72;;;18.60;99.80
21838;BME280;11081;45.946;6.140;2023-09-19T06:12:47;95361.56;;;18.67;99.41
21838;BME280;11081;45.946;6.140;2023-09-19T06:15:16;95362.09;;;18.69;99.28
21838;BME280;11081;45.946;6.140;2023-09-19T06:17:48;95359.41;;;18.18;100.00
21838;BME280;11081;45.946;6.140;2023-09-19T06:20:16;95357.03;;;18.17;100.00
21838;BME280;11081;45.946;6.140;2023-09-19T06:22:46;95367.84;;;18.10;100.00
21838;BME280;11081;45.946;6.140;2023-09-19T06:25:16;95368.38;;;17.97;100.00
21838;BME280;11081;45.946;6.140;2023-09-19T06:27:47;95369.94;;;17.98;100.00
21838;BME280;11081;45.946;6.140;2023-09-19T06:30:15;95376.03;;;17.98;100.00
21838;BME280;11081;45.946;6.140;2023-09-19T06:32:44;95375.50;;;18.02;100.00
21838;BME280;11081;45.946;6.140;2023-09-19T06:35:15;95374.72;;;18.01;100.00
21838;BME280;11081;45.946;6.140;2023-09-19T06:37:43;95372.06;;;17.96;100.00
21838;BME280;11081;45.946;6.140;2023-09-19T06:40:12;95374.72;;;17.96;100.00
21838;BME280;11081;45.946;6.140;2023-09-19T06:42:41;95378.38;;;17.90;100.00
21838;BME280;11081;45.946;6.140;2023-09-19T06:45:11;95371.50;;;17.79;100.00
21838;BME280;11081;45.946;6.140;2023-09-19T06:47:40;95381.00;;;17.75;100.00
21838;BME280;11081;45.946;6.140;2023-09-19T06:50:09;95370.69;;;17.78;100.00
21838;BME280;11081;45.946;6.140;2023-09-19T06:52:41;95374.72;;;17.96;100.00
21838;BME280;11081;45.946;6.140;2023-09-19T06:55:09;95372.06;;;18.06;100.00
21838;BME280;11081;45.946;6.140;2023-09-19T06:57:40;95373.69;;;18.17;100.00
21838;BME280;11081;45.946;6.140;2023-09-19T07:00:11;95370.50;;;18.25;100.00
21838;BME280;11081;45.946;6.140;2023-09-19T07:02:45;95371.06;;;18.33;100.00
21838;BME280;11081;45.946;6.140;2023-09-19T07:05:13;95379.00;;;18.38;100.00
21838;BME280;11081;45.946;6.140;2023-09-19T07:07:42;95374.22;;;18.40;100.00
21838;BME280;11081;45.946;6.140;2023-09-19T07:10:13;95386.91;;;18.43;100.00
21838;BME280;11081;45.946;6.140;2023-09-19T07:12:41;95374.22;;;18.45;100.00
21838;BME280;11081;45.946;6.140;2023-09-19T07:15:10;95375.81;;;18.46;100.00
21838;BME280;11081;45.946;6.140;2023-09-19T07:17:37;95379.50;;;18.45;100.00
21838;BME280;11081;45.946;6.140;2023-09-19T07:20:06;95380.56;;;18.49;100.00
21838;BME280;11081;45.946;6.140;2023-09-19T07:22:35;95380.03;;;18.52;100.00
21838;BME280;11081;45.946;6.140;2023-09-19T07:25:07;95377.41;;;18.57;100.00
21838;BME280;11081;45.946;6.140;2023-09-19T07:27:35;95375.28;;;18.59;100.00
21838;BME280;11081;45.946;6.140;2023-09-19T07:30:04;95385.88;;;18.64;100.00
21838;BME280;11081;45.946;6.140;2023-09-19T07:32:35;95383.25;;;18.69;100.00
21838;BME280;11081;45.946;6.140;2023-09-19T07:35:05;95393.28;;;18.67;100.00
21838;BME280;11081;45.946;6.140;2023-09-19T07:37:35;95385.88;;;18.69;100.00
21838;BME280;11081;45.946;6.140;2023-09-19T07:40:04;95392.75;;;18.70;100.00
21838;BME280;11081;45.946;6.140;2023-09-19T07:42:35;95398.03;;;18.70;100.00
21838;BME280;11081;45.946;6.140;2023-09-19T07:45:04;95393.28;;;18.67;100.00
21838;BME280;11081;45.946;6.140;2023-09-19T07:47:32;95397.25;;;18.70;100.00
21838;BME280;11081;45.946;6.140;2023-09-19T07:50:00;95395.41;;;18.65;100.00
21838;BME280;11081;45.946;6.140;2023-09-19T07:52:29;95399.13;;;18.64;100.00
21838;BME280;11081;45.946;6.140;2023-09-19T07:54:58;95402.81;;;18.63;100.00
21838;BME280;11081;45.946;6.140;2023-09-19T07:57:28;95402.28;;;18.66;100.00
21838;BME280;11081;45.946;6.140;2023-09-19T07:59:58;95409.16;;;18.67;100.00
21838;BME280;11081;45.946;6.140;2023-09-19T08:02:26;95410.47;;;18.65;100.00
21838;BME280;11081;45.946;6.140;2023-09-19T08:04:55;95416.56;;;18.65;100.00
21838;BME280;11081;45.946;6.140;2023-09-19T08:07:25;95410.75;;;18.68;100.00
21838;BME280;11081;45.946;6.140;2023-09-19T08:09:55;95423.97;;;18.68;100.00
21838;BME280;11081;45.946;6.140;2023-09-19T08:12:25;95411.28;;;18.65;99.98
21838;BME280;11081;45.946;6.140;2023-09-19T08:14:53;95416.03;;;18.68;100.00
21838;BME280;11081;45.946;6.140;2023-09-19T08:17:23;95422.63;;;18.71;99.86
21838;BME280;11081;45.946;6.140;2023-09-19T08:19:52;95418.16;;;18.66;98.67
21838;BME280;11081;45.946;6.140;2023-09-19T08:22:20;95423.69;;;18.70;98.69
21838;BME280;11081;45.946;6.140;2023-09-19T08:24:52;95423.97;;;18.73;98.78
21838;BME280;11081;45.946;6.140;2023-09-19T08:27:20;95422.94;;;18.74;98.33
21838;BME280;11081;45.946;6.140;2023-09-19T08:29:48;95423.97;;;18.73;98.09
21838;BME280;11081;45.946;6.140;2023-09-19T08:32:18;95434.53;;;18.73;97.70
21838;BME280;11081;45.946;6.140;2023-09-19T08:34:52;95429.78;;;18.80;97.86
21838;BME280;11081;45.946;6.140;2023-09-19T08:37:20;95435.59;;;18.87;98.39
21838;BME280;11081;45.946;6.140;2023-09-19T08:39:48;95436.94;;;18.95;98.05
21838;BME280;11081;45.946;6.140;2023-09-19T08:42:16;95432.69;;;18.99;97.38
21838;BME280;11081;45.946;6.140;2023-09-19T08:44:46;95438.25;;;19.03;97.56
21838;BME280;11081;45.946;6.140;2023-09-19T08:47:15;95439.28;;;19.07;98.01
21838;BME280;11081;45.946;6.140;2023-09-19T08:49:53;95435.59;;;19.08;97.24
21838;BME280;11081;45.946;6.140;2023-09-19T08:52:27;95438.22;;;19.13;97.57
21838;BME280;11081;45.946;6.140;2023-09-19T08:54:58;95440.88;;;19.18;97.15
21838;BME280;11081;45.946;6.140;2023-09-19T08:57:33;95446.16;;;19.18;96.75
21838;BME280;11081;45.946;6.140;2023-09-19T09:00:03;95441.38;;;19.25;96.25
21838;BME280;11081;45.946;6.140;2023-09-19T09:02:37;95439.81;;;19.24;96.38
21838;BME280;11081;45.946;6.140;2023-09-19T09:05:09;95445.09;;;19.24;96.04
21838;BME280;11081;45.946;6.140;2023-09-19T09:07:38;95439.25;;;19.27;97.04
21838;BME280;11081;45.946;6.140;2023-09-19T09:10:07;95438.47;;;19.27;96.40
21838;BME280;11081;45.946;6.140;2023-09-19T09:12:36;95429.72;;;19.41;95.83
21838;BME280;11081;45.946;6.140;2023-09-19T09:15:07;95438.44;;;19.32;96.06
21838;BME280;11081;45.946;6.140;2023-09-19T09:17:35;95437.13;;;19.29;96.47
21838;BME280;11081;45.946;6.140;2023-09-19T09:20:05;95437.38;;;19.33;96.40
21838;BME280;11081;45.946;6.140;2023-09-19T09:22:36;95436.06;;;19.45;95.34
21838;BME280;11081;45.946;6.140;2023-09-19T09:25:07;95434.47;;;19.44;94.39
21838;BME280;11081;45.946;6.140;2023-09-19T09:27:35;95432.88;;;19.54;94.54
21838;BME280;11081;45.946;6.140;2023-09-19T09:30:03;95430.22;;;19.43;94.39
21838;BME280;11081;45.946;6.140;2023-09-19T09:32:33;95424.91;;;19.48;94.95
21838;BME280;11081;45.946;6.140;2023-09-19T09:35:10;95433.94;;;19.58;95.36
21838;BME280;11081;45.946;6.140;2023-09-19T09:37:43;95425.41;;;19.66;94.48
21838;BME280;11081;45.946;6.140;2023-09-19T09:40:14;95425.91;;;19.73;94.23
21838;BME280;11081;45.946;6.140;2023-09-19T09:43:03;95424.84;;;19.79;93.88
21838;BME280;11081;45.946;6.140;2023-09-19T09:46:06;95412.13;;;19.81;94.55
21838;BME280;11081;45.946;6.140;2023-09-19T09:48:39;95419.00;;;19.82;94.37
21838;BME280;11081;45.946;6.140;2023-09-19T09:51:06;95416.25;;;19.97;94.27
21838;BME280;11081;45.946;6.140;2023-09-19T09:53:36;95421.47;;;20.18;93.20
21838;BME280;11081;45.946;6.140;2023-09-19T09:56:05;95415.56;;;20.31;92.29
21838;BME280;11081;45.946;6.140;2023-09-19T09:58:34;95408.88;;;20.38;91.93
21838;BME280;11081;45.946;6.140;2023-09-19T10:01:04;95402.22;;;20.46;90.99
21838;BME280;11081;45.946;6.140;2023-09-19T10:03:38;95398.50;;;20.47;89.05
21838;BME280;11081;45.946;6.140;2023-09-19T10:06:10;95407.22;;;20.53;88.04
21838;BME280;11081;45.946;6.140;2023-09-19T10:09:00;95400.22;;;20.67;88.55
21838;BME280;11081;45.946;6.140;2023-09-19T10:11:42;95400.16;;;20.72;88.90
21838;BME280;11081;45.946;6.140;2023-09-19T10:14:15;95403.09;;;20.70;86.78
21838;BME280;11081;45.946;6.140;2023-09-19T10:16:46;95400.50;;;20.60;86.58
21838;BME280;11081;45.946;6.140;2023-09-19T10:19:16;95405.81;;;20.65;87.51
21838;BME280;11081;45.946;6.140;2023-09-19T10:21:53;95401.00;;;20.67;85.39
21838;BME280;11081;45.946;6.140;2023-09-19T10:24:25;95396.84;;;20.56;83.85
21838;BME280;11081;45.946;6.140;2023-09-19T10:26:55;95393.06;;;20.67;83.12
21838;BME280;11081;45.946;6.140;2023-09-19T10:29:24;95396.59;;;20.87;82.72
21838;BME280;11081;45.946;6.140;2023-09-19T10:31:54;95390.63;;;21.00;82.73
21838;BME280;11081;45.946;6.140;2023-09-19T10:34:25;95399.81;;;21.13;81.10
21838;BME280;11081;45.946;6.140;2023-09-19T10:36:53;95393.13;;;21.15;79.92
21838;BME280;11081;45.946;6.140;2023-09-19T10:39:23;95396.72;;;21.00;80.76
21838;BME280;11081;45.946;6.140;2023-09-19T10:41:53;95388.47;;;21.02;80.15
21838;BME280;11081;45.946;6.140;2023-09-19T10:44:26;95384.66;;;21.13;79.50
21838;BME280;11081;45.946;6.140;2023-09-19T10:46:55;95388.41;;;21.12;78.74
21838;BME280;11081;45.946;6.140;2023-09-19T10:49:25;95390.94;;;21.27;79.55
21838;BME280;11081;45.946;6.140;2023-09-19T10:51:56;95397.38;;;21.45;78.54
21838;BME280;11081;45.946;6.140;2023-09-19T10:54:29;95390.59;;;21.58;77.73
21838;BME280;11081;45.946;6.140;2023-09-19T10:56:59;95390.00;;;21.61;78.42
21838;BME280;11081;45.946;6.140;2023-09-19T10:59:32;95387.41;;;21.56;77.92
21838;BME280;11081;45.946;6.140;2023-09-19T11:02:16;95393.94;;;21.45;79.18
21838;BME280;11081;45.946;6.140;2023-09-19T11:04:45;95395.00;;;21.44;79.53
21838;BME280;11081;45.946;6.140;2023-09-19T11:07:15;95384.84;;;21.51;78.27
21838;BME280;11081;45.946;6.140;2023-09-19T11:09:46;95382.31;;;21.59;78.01
21838;BME280;11081;45.946;6.140;2023-09-19T11:12:50;95380.38;;;21.65;76.46
21838;BME280;11081;45.946;6.140;2023-09-19T11:18:52;95374.69;;;21.96;74.93
21838;BME280;11081;45.946;6.140;2023-09-19T11:21:54;95373.63;;;21.97;75.45
21838;BME280;11081;45.946;6.140;2023-09-19T11:24:31;95371.63;;;21.46;74.35
21838;BME280;11081;45.946;6.140;2023-09-19T11:27:14;95371.50;;;21.32;77.28
21838;BME280;11081;45.946;6.140;2023-09-19T11:29:44;95364.25;;;21.38;76.55
21838;BME280;11081;45.946;6.140;2023-09-19T11:32:13;95364.66;;;21.50;76.41
21838;BME280;11081;45.946;6.140;2023-09-19T11:34:46;95360.88;;;21.32;74.30
21838;BME280;11081;45.946;6.140;2023-09-19T11:40:38;95349.69;;;21.35;76.40
21838;BME280;11081;45.946;6.140;2023-09-19T11:43:30;95353.75;;;21.51;75.01
21838;BME280;11081;45.946;6.140;2023-09-19T11:46:04;95356.94;;;21.72;74.05
21838;BME280;11081;45.946;6.140;2023-09-19T11:48:34;95349.03;;;21.86;74.51
21838;BME280;11081;45.946;6.140;2023-09-19T11:51:17;95351.28;;;21.98;71.42
21838;BME280;11081;45.946;6.140;2023-09-19T11:53:54;95357.38;;;21.98;71.64
21838;BME280;11081;45.946;6.140;2023-09-19T11:56:23;95345.50;;;22.14;70.99
21838;BME280;11081;45.946;6.140;2023-09-19T11:58:56;95347.69;;;22.26;70.75
21838;BME280;11081;45.946;6.140;2023-09-19T12:01:30;95345.91;;;22.21;70.13
21838;BME280;11081;45.946;6.140;2023-09-19T12:04:00;95342.66;;;22.06;70.54
21838;BME280;11081;45.946;6.140;2023-09-19T12:06:30;95341.38;;;22.22;70.06
21838;BME280;11081;45.946;6.140;2023-09-19T12:08:59;95345.97;;;22.35;69.27
21838;BME280;11081;45.946;6.140;2023-09-19T12:11:29;95347.69;;;22.26;69.97
21838;BME280;11081;45.946;6.140;2023-09-19T12:14:02;95343.22;;;22.40;70.03
21838;BME280;11081;45.946;6.140;2023-09-19T12:16:31;95335.41;;;22.63;69.75
21838;BME280;11081;45.946;6.140;2023-09-19T12:19:19;95335.25;;;22.73;68.49
21838;BME280;11081;45.946;6.140;2023-09-19T12:21:56;95326.88;;;22.47;70.53
21838;BME280;11081;45.946;6.140;2023-09-19T12:24:27;95333.16;;;22.37;70.83
21838;BME280;11081;45.946;6.140;2023-09-19T12:27:01;95335.47;;;22.25;70.36
21838;BME280;11081;45.946;6.140;2023-09-19T12:29:42;95327.75;;;22.10;68.83
21838;BME280;11081;45.946;6.140;2023-09-19T12:32:10;95337.19;;;21.78;70.41
21838;BME280;11081;45.946;6.140;2023-09-19T12:34:38;95340.03;;;21.63;70.82
21838;BME280;11081;45.946;6.140;2023-09-19T12:37:10;95337.53;;;21.72;70.73
21838;BME280;11081;45.946;6.140;2023-09-19T12:39:40;95325.56;;;21.74;70.10
21838;BME280;11081;45.946;6.140;2023-09-19T12:42:16;95334.53;;;21.78;70.18
21838;BME280;11081;45.946;6.140;2023-09-19T12:44:47;95334.88;;;21.53;70.23
21838;BME280;11081;45.946;6.140;2023-09-19T12:47:18;95329.53;;;21.53;70.31
21838;BME280;11081;45.946;6.140;2023-09-19T12:50:08;95329.75;;;21.56;70.26
21838;BME280;11081;45.946;6.140;2023-09-19T12:52:42;95328.59;;;21.44;70.89
21838;BME280;11081;45.946;6.140;2023-09-19T12:55:22;95324.47;;;21.33;71.42
21838;BME280;11081;45.946;6.140;2023-09-19T12:58:08;95328.06;;;21.42;72.43
21838;BME280;11081;45.946;6.140;2023-09-19T13:00:39;95320.56;;;21.49;72.86
21838;BME280;11081;45.946;6.140;2023-09-19T13:03:18;95313.72;;;21.43;71.42
21838;BME280;11081;45.946;6.140;2023-09-19T13:05:53;95310.44;;;21.51;72.37
21838;BME280;11081;45.946;6.140;2023-09-19T13:08:26;95318.19;;;21.47;72.31
21838;BME280;11081;45.946;6.140;2023-09-19T13:11:01;95308.41;;;21.43;72.84
21838;BME280;11081;45.946;6.140;2023-09-19T13:13:29;95304.53;;;21.35;72.85
21838;BME280;11081;45.946;6.140;2023-09-19T13:16:01;95310.00;;;21.44;73.55
21838;BME280;11081;45.946;6.140;2023-09-19T13:18:31;95306.00;;;21.65;73.89
21838;BME280;11081;45.946;6.140;2023-09-19T13:21:06;95298.41;;;21.77;73.31
21838;BME280;11081;45.946;6.140;2023-09-19T13:23:37;95295.25;;;21.75;72.04
21838;BME280;11081;45.946;6.140;2023-09-19T13:26:05;95295.59;;;21.69;72.18
21838;BME280;11081;45.946;6.140;2023-09-19T13:28:34;95293.25;;;21.67;72.17